createdAt,value
2018-05-29T00:01:03.478Z,85.50
2018-05-29T00:03:36.658Z,85.50
2018-05-29T00:06:09.207Z,85.50
2018-05-29T00:08:42.368Z,86.40
2018-05-29T00:11:15.971Z,86.00
2018-05-29T00:13:48.592Z,85.90
2018-05-29T00:16:21.271Z,85.80
2018-05-29T00:18:53.666Z,86.10
2018-05-29T00:21:26.284Z,86.50
2018-05-29T00:23:58.666Z,86.40
2018-05-29T00:26:31.223Z,86.60
2018-05-29T00:29:04.628Z,86.90
2018-05-29T00:31:37.785Z,87.20
2018-05-29T00:34:10.951Z,87.70
2018-05-29T00:36:44.036Z,87.70
2018-05-29T00:39:17.298Z,87.80
2018-05-29T00:41:49.631Z,87.70
2018-05-29T00:44:22.220Z,87.70
2018-05-29T00:46:54.750Z,87.90
2018-05-29T00:49:27.233Z,87.90
2018-05-29T00:51:59.772Z,87.40
2018-05-29T00:54:32.160Z,87.00
2018-05-29T00:57:05.281Z,87.20
2018-05-29T00:59:37.867Z,87.10
2018-05-29T01:02:11.091Z,87.80
2018-05-29T01:04:44.279Z,88.10
2018-05-29T01:07:17.468Z,88.50
2018-05-29T01:09:49.907Z,88.50
2018-05-29T01:12:22.538Z,88.70
2018-05-29T01:14:55.740Z,89.00
2018-05-29T01:17:28.123Z,88.90
2018-05-29T01:20:00.537Z,88.80
2018-05-29T01:22:33.008Z,88.80
2018-05-29T01:25:05.467Z,88.90
2018-05-29T01:27:38.582Z,89.00
2018-05-29T01:30:11.348Z,89.00
2018-05-29T01:32:43.831Z,89.50
2018-05-29T01:35:16.301Z,88.90
2018-05-29T01:37:48.712Z,89.10
2018-05-29T01:40:21.133Z,89.10
2018-05-29T01:42:53.611Z,89.20
2018-05-29T01:45:26.147Z,89.20
2018-05-29T01:47:58.836Z,89.10
2018-05-29T01:50:31.261Z,89.20
2018-05-29T01:53:03.708Z,89.50
2018-05-29T01:55:36.088Z,89.20
2018-05-29T01:58:08.781Z,88.90
2018-05-29T02:00:41.242Z,88.70
2018-05-29T02:03:14.624Z,88.10
2018-05-29T02:05:46.953Z,88.10
2018-05-29T02:08:19.557Z,88.00
2018-05-29T02:10:52.076Z,88.40
2018-05-29T02:13:24.486Z,88.40
2018-05-29T02:15:57.078Z,88.40
2018-05-29T02:18:29.552Z,89.30
2018-05-29T02:21:01.924Z,88.90
2018-05-29T02:23:34.514Z,88.90
2018-05-29T02:26:07.632Z,88.80
2018-05-29T02:28:39.988Z,88.80
2018-05-29T02:31:12.406Z,89.10
2018-05-29T02:33:45.534Z,89.10
2018-05-29T02:36:18.206Z,89.20
2018-05-29T02:38:50.593Z,88.90
2018-05-29T02:41:23.797Z,89.50
2018-05-29T02:43:56.970Z,89.40
2018-05-29T02:46:29.659Z,89.40
2018-05-29T02:51:40.222Z,89.80
2018-05-29T02:54:12.611Z,90.00
2018-05-29T02:56:45.012Z,90.00
2018-05-29T02:59:18.072Z,90.00
2018-05-29T03:01:50.588Z,90.30
2018-05-29T03:04:23.794Z,89.80
2018-05-29T03:06:56.591Z,89.80
2018-05-29T03:09:29.250Z,89.70
2018-05-29T03:12:02.343Z,89.60
2018-05-29T03:14:34.849Z,89.50
2018-05-29T03:17:07.234Z,89.70
2018-05-29T03:19:39.549Z,89.60
2018-05-29T03:22:11.924Z,90.00
2018-05-29T03:24:45.831Z,90.00
2018-05-29T03:27:18.548Z,89.50
2018-05-29T03:29:50.988Z,90.10
2018-05-29T03:32:24.257Z,90.00
2018-05-29T03:34:56.833Z,90.00
2018-05-29T03:37:30.204Z,90.00
2018-05-29T03:40:03.629Z,90.00
2018-05-29T03:42:36.350Z,90.00
2018-05-29T03:45:08.777Z,90.10
2018-05-29T03:47:41.992Z,90.10
2018-05-29T03:50:15.936Z,90.10
2018-05-29T03:52:49.160Z,90.10
2018-05-29T03:55:22.269Z,90.10
2018-05-29T03:57:54.722Z,90.10
2018-05-29T04:00:27.218Z,90.00
2018-05-29T04:02:59.808Z,90.30
2018-05-29T04:05:32.242Z,90.00
2018-05-29T04:08:04.623Z,89.90
2018-05-29T04:10:37.132Z,89.90
2018-05-29T04:13:10.458Z,90.00
2018-05-29T04:15:43.661Z,89.80
2018-05-29T04:18:16.292Z,89.70
2018-05-29T04:20:48.743Z,89.90
2018-05-29T04:23:21.538Z,89.90
2018-05-29T04:25:54.023Z,89.80
2018-05-29T04:28:27.123Z,89.70
2018-05-29T04:30:59.419Z,89.70
2018-05-29T04:33:32.064Z,90.00
2018-05-29T04:36:04.637Z,89.30
2018-05-29T04:38:37.785Z,89.10
2018-05-29T04:41:10.999Z,89.10
2018-05-29T04:43:43.572Z,89.10
2018-05-29T04:46:16.171Z,89.10
2018-05-29T04:48:49.342Z,89.80
2018-05-29T04:51:21.924Z,89.10
2018-05-29T04:53:55.827Z,88.60
2018-05-29T04:56:29.038Z,87.80
2018-05-29T04:59:01.729Z,87.80
2018-05-29T05:01:34.412Z,87.70
2018-05-29T05:04:07.750Z,87.40
2018-05-29T05:06:44.077Z,87.20
2018-05-29T05:09:16.709Z,87.10
2018-05-29T05:11:49.219Z,86.80
2018-05-29T05:14:21.823Z,86.90
2018-05-29T05:16:54.448Z,87.00
2018-05-29T05:19:27.587Z,87.80
2018-05-29T05:22:00.044Z,87.80
2018-05-29T05:24:32.469Z,87.70
2018-05-29T05:27:05.791Z,87.60
2018-05-29T05:29:38.465Z,87.60
2018-05-29T05:32:10.990Z,87.30
2018-05-29T05:34:43.679Z,86.60
2018-05-29T05:37:16.152Z,85.80
2018-05-29T05:39:48.732Z,84.60
2018-05-29T05:42:25.516Z,85.10
2018-05-29T05:44:57.869Z,84.20
2018-05-29T05:47:30.604Z,83.10
2018-05-29T05:50:03.915Z,81.50
2018-05-29T05:52:36.493Z,81.50
2018-05-29T05:55:09.148Z,81.90
2018-05-29T05:57:41.809Z,81.60
2018-05-29T06:00:14.258Z,81.10
2018-05-29T06:02:46.689Z,81.20
2018-05-29T06:05:19.328Z,80.40
2018-05-29T06:07:52.032Z,80.00
2018-05-29T06:10:25.163Z,79.90
2018-05-29T06:12:58.405Z,79.60
2018-05-29T06:15:31.603Z,79.30
2018-05-29T06:18:04.024Z,79.30
2018-05-29T06:20:36.538Z,78.60
2018-05-29T06:23:09.105Z,77.80
2018-05-29T06:25:41.474Z,78.20
2018-05-29T06:28:13.892Z,77.70
2018-05-29T06:30:46.269Z,77.10
2018-05-29T06:33:18.746Z,76.50
2018-05-29T06:35:51.362Z,76.20
2018-05-29T06:38:23.763Z,74.70
2018-05-29T06:41:00.568Z,73.10
2018-05-29T06:43:33.179Z,72.90
2018-05-29T06:46:06.488Z,71.80
2018-05-29T06:48:38.893Z,71.80
2018-05-29T06:51:11.369Z,71.50
2018-05-29T06:53:43.861Z,71.60
2018-05-29T06:56:16.514Z,70.80
2018-05-29T06:58:49.671Z,69.60
2018-05-29T07:01:22.332Z,69.50
2018-05-29T07:03:55.092Z,69.00
2018-05-29T07:06:27.382Z,68.20
2018-05-29T07:08:59.850Z,68.60
2018-05-29T07:11:32.845Z,68.50
2018-05-29T07:14:05.403Z,68.20
2018-05-29T07:16:38.466Z,67.50
2018-05-29T07:19:11.016Z,67.40
2018-05-29T07:21:43.442Z,67.60
2018-05-29T07:24:15.808Z,67.00
2018-05-29T07:26:49.185Z,66.00
2018-05-29T07:29:21.863Z,66.00
2018-05-29T07:31:54.384Z,66.30
2018-05-29T07:34:26.842Z,65.70
2018-05-29T07:36:59.352Z,65.20
2018-05-29T07:39:31.856Z,64.20
2018-05-29T07:42:04.564Z,63.00
2018-05-29T07:44:37.004Z,62.90
2018-05-29T07:47:09.549Z,63.60
2018-05-29T07:49:41.994Z,64.20
2018-05-29T07:52:14.484Z,63.00
2018-05-29T07:54:47.137Z,62.50
2018-05-29T07:57:19.797Z,62.90
2018-05-29T07:59:52.987Z,62.20
2018-05-29T08:02:25.470Z,62.10
2018-05-29T08:04:58.030Z,62.10
2018-05-29T08:07:30.364Z,60.60
2018-05-29T08:10:03.742Z,60.50
2018-05-29T08:12:39.585Z,60.50
2018-05-29T08:15:12.202Z,60.50
2018-05-29T08:17:44.714Z,60.50
2018-05-29T08:20:18.666Z,59.80
2018-05-29T08:22:51.068Z,59.70
2018-05-29T08:25:23.424Z,60.10
2018-05-29T08:27:55.962Z,59.70
2018-05-29T08:30:28.473Z,59.40
2018-05-29T08:33:01.712Z,59.20
2018-05-29T08:35:34.054Z,59.10
2018-05-29T08:40:46.523Z,58.90
2018-05-29T08:43:23.485Z,58.20
2018-05-29T08:45:55.943Z,58.20
2018-05-29T08:48:28.339Z,58.00
2018-05-29T08:51:01.698Z,57.80
2018-05-29T08:53:34.310Z,57.80
2018-05-29T08:56:07.431Z,57.30
2018-05-29T08:58:40.682Z,56.80
2018-05-29T09:01:13.965Z,57.40
2018-05-29T09:03:46.398Z,57.30
2018-05-29T09:06:19.018Z,57.60
2018-05-29T09:08:51.444Z,56.90
2018-05-29T09:11:23.847Z,57.10
2018-05-29T09:13:56.491Z,56.90
2018-05-29T09:16:29.090Z,56.50
2018-05-29T09:19:01.459Z,55.80
2018-05-29T09:21:34.069Z,55.70
2018-05-29T09:24:06.509Z,56.50
2018-05-29T09:26:40.630Z,55.30
2018-05-29T09:29:13.194Z,55.30
2018-05-29T09:31:45.735Z,55.20
2018-05-29T09:34:18.321Z,54.50
2018-05-29T09:36:50.684Z,54.50
2018-05-29T09:39:23.851Z,53.80
2018-05-29T09:41:57.069Z,54.90
2018-05-29T09:44:30.238Z,54.50
2018-05-29T09:47:03.380Z,53.20
2018-05-29T09:49:36.668Z,52.70
2018-05-29T09:52:09.939Z,52.40
2018-05-29T09:54:43.239Z,52.30
2018-05-29T09:57:16.500Z,52.70
2018-05-29T09:59:49.702Z,52.90
2018-05-29T10:02:22.245Z,52.90
2018-05-29T10:04:54.687Z,52.50
2018-05-29T10:07:27.164Z,51.70
2018-05-29T10:09:59.839Z,52.10
2018-05-29T10:12:32.404Z,51.30
2018-05-29T10:15:05.217Z,52.00
2018-05-29T10:17:37.797Z,52.00
2018-05-29T10:20:10.368Z,52.50
2018-05-29T10:22:42.883Z,51.40
2018-05-29T10:25:18.823Z,52.30
2018-05-29T10:27:51.433Z,51.80
2018-05-29T10:30:31.163Z,53.20
2018-05-29T10:33:03.928Z,50.90
2018-05-29T10:35:36.439Z,50.40
2018-05-29T10:38:09.163Z,51.30
2018-05-29T10:40:41.842Z,52.30
2018-05-29T10:43:14.498Z,51.10
2018-05-29T10:45:47.514Z,50.60
2018-05-29T10:48:20.774Z,50.50
2018-05-29T10:50:53.964Z,52.30
2018-05-29T10:53:30.369Z,50.90
2018-05-29T10:56:03.584Z,50.60
2018-05-29T10:58:36.809Z,51.30
2018-05-29T11:01:09.188Z,51.30
2018-05-29T11:03:42.453Z,50.40
2018-05-29T11:06:14.853Z,50.40
2018-05-29T11:08:47.789Z,50.40
2018-05-29T11:11:20.416Z,50.90
2018-05-29T11:13:52.809Z,49.20
2018-05-29T11:16:25.424Z,49.70
2018-05-29T11:18:58.124Z,50.30
2018-05-29T11:21:30.518Z,51.00
2018-05-29T11:24:03.203Z,50.00
2018-05-29T11:26:35.580Z,49.60
2018-05-29T11:29:08.724Z,48.90
2018-05-29T11:31:42.099Z,48.60
2018-05-29T11:34:14.569Z,48.60
2018-05-29T11:36:47.090Z,48.30
2018-05-29T11:39:19.561Z,48.40
2018-05-29T11:41:52.787Z,48.60
2018-05-29T11:44:26.636Z,48.60
2018-05-29T11:46:59.847Z,49.10
2018-05-29T11:49:32.281Z,49.10
2018-05-29T11:52:04.908Z,47.50
2018-05-29T11:54:37.545Z,47.60
2018-05-29T11:57:10.188Z,47.70
2018-05-29T11:59:42.593Z,47.00
2018-05-29T12:02:15.011Z,47.20
2018-05-29T12:04:49.188Z,46.60
2018-05-29T12:07:21.607Z,46.60
2018-05-29T12:09:54.194Z,46.20
2018-05-29T12:12:26.924Z,46.30
2018-05-29T12:14:59.506Z,46.80
2018-05-29T12:17:32.093Z,47.20
2018-05-29T12:20:05.394Z,48.30
2018-05-29T12:22:38.946Z,47.90
2018-05-29T12:25:11.568Z,47.80
2018-05-29T12:27:44.203Z,47.60
2018-05-29T12:30:16.949Z,47.00
2018-05-29T12:32:49.434Z,46.20
2018-05-29T12:35:22.208Z,46.50
2018-05-29T12:37:55.605Z,45.40
2018-05-29T12:40:28.886Z,44.20
2018-05-29T12:43:01.316Z,44.20
2018-05-29T12:45:34.009Z,44.50
2018-05-29T12:48:06.610Z,45.30
2018-05-29T12:50:39.381Z,44.30
2018-05-29T12:53:12.020Z,44.90
2018-05-29T12:55:44.578Z,43.70
2018-05-29T12:58:17.759Z,41.10
2018-05-29T13:00:50.411Z,41.10
2018-05-29T13:03:23.702Z,36.30
2018-05-29T13:05:57.295Z,36.10
2018-05-29T13:08:29.756Z,36.00
2018-05-29T13:11:02.425Z,34.80
2018-05-29T13:13:35.074Z,33.20
2018-05-29T13:16:14.580Z,32.90
2018-05-29T13:18:47.159Z,33.20
2018-05-29T13:21:19.891Z,33.60
2018-05-29T13:23:52.464Z,35.50
2018-05-29T13:26:25.176Z,36.60
2018-05-29T13:28:57.833Z,38.20
2018-05-29T13:31:31.030Z,38.10
2018-05-29T13:34:03.529Z,38.10
2018-05-29T13:36:35.996Z,38.40
2018-05-29T13:39:08.692Z,39.80
2018-05-29T13:41:41.403Z,39.80
2018-05-29T13:44:13.998Z,39.10
2018-05-29T13:46:46.545Z,40.00
2018-05-29T13:49:19.214Z,39.20
2018-05-29T13:51:52.369Z,42.00
2018-05-29T13:54:25.058Z,41.90
2018-05-29T13:56:57.894Z,42.70
2018-05-29T13:59:31.267Z,42.50
2018-05-29T14:02:03.880Z,42.50
2018-05-29T14:04:37.198Z,41.90
2018-05-29T14:07:10.671Z,41.10
2018-05-29T14:09:43.249Z,41.00
2018-05-29T14:12:15.750Z,41.20
2018-05-29T14:14:48.499Z,40.70
2018-05-29T14:17:21.038Z,40.80
2018-05-29T14:19:54.244Z,40.60
2018-05-29T14:22:26.727Z,40.60
2018-05-29T14:25:00.329Z,41.10
2018-05-29T14:27:32.836Z,41.00
2018-05-29T14:30:05.714Z,41.00
2018-05-29T14:32:38.233Z,41.00
2018-05-29T14:35:10.894Z,40.70
2018-05-29T14:37:43.414Z,42.00
2018-05-29T14:40:16.129Z,41.80
2018-05-29T14:42:48.775Z,40.70
2018-05-29T14:45:21.319Z,41.30
2018-05-29T14:47:53.793Z,43.00
2018-05-29T14:50:27.261Z,43.10
2018-05-29T14:52:59.809Z,43.00
2018-05-29T14:55:32.483Z,42.80
2018-05-29T14:58:05.160Z,43.30
2018-05-29T15:00:38.442Z,44.00
2018-05-29T15:03:11.010Z,43.90
2018-05-29T15:05:43.818Z,45.00
2018-05-29T15:08:16.400Z,44.20
2018-05-29T15:10:49.171Z,44.40
2018-05-29T15:13:21.789Z,44.30
2018-05-29T15:15:59.598Z,44.60
2018-05-29T15:18:32.099Z,44.70
2018-05-29T15:21:05.381Z,43.70
2018-05-29T15:23:37.986Z,43.60
2018-05-29T15:26:10.456Z,47.40
2018-05-29T15:28:43.175Z,49.40
2018-05-29T15:31:15.575Z,49.90
2018-05-29T15:33:48.801Z,55.40
2018-05-29T15:36:22.188Z,58.40
2018-05-29T15:38:54.752Z,58.30
2018-05-29T15:41:28.009Z,59.30
2018-05-29T15:44:01.269Z,61.50
2018-05-29T15:46:33.776Z,61.50
2018-05-29T15:49:07.293Z,63.30
2018-05-29T15:51:40.428Z,65.00
2018-05-29T15:54:13.615Z,67.00
2018-05-29T15:56:46.122Z,66.90
2018-05-29T15:59:18.670Z,66.90
2018-05-29T16:01:51.085Z,71.50
2018-05-29T16:04:23.457Z,71.10
2018-05-29T16:06:56.619Z,78.10
2018-05-29T16:09:29.814Z,80.10
2018-05-29T16:12:03.111Z,78.80
2018-05-29T16:14:35.696Z,78.80
2018-05-29T16:17:08.879Z,80.90
2018-05-29T16:19:41.510Z,80.90
2018-05-29T16:22:14.023Z,82.10
2018-05-29T16:24:46.671Z,82.80
2018-05-29T16:27:19.148Z,84.80
2018-05-29T16:29:52.275Z,86.10
2018-05-29T16:32:24.938Z,86.10
2018-05-29T16:34:57.678Z,86.00
2018-05-29T16:37:30.136Z,87.70
2018-05-29T16:40:02.665Z,87.10
2018-05-29T16:42:35.377Z,87.20
2018-05-29T16:45:07.840Z,86.80
2018-05-29T16:47:41.283Z,87.00
2018-05-29T16:50:14.175Z,87.00
2018-05-29T16:52:46.980Z,89.40
2018-05-29T16:55:19.749Z,90.10
2018-05-29T16:57:52.484Z,90.10
2018-05-29T17:00:25.040Z,90.00
2018-05-29T17:02:57.612Z,90.30
2018-05-29T17:05:30.000Z,90.70
2018-05-29T17:08:02.711Z,90.60
2018-05-29T17:10:36.096Z,90.70
2018-05-29T17:13:09.348Z,91.00
2018-05-29T17:15:41.945Z,91.00
2018-05-29T17:18:14.449Z,91.20
2018-05-29T17:20:47.156Z,91.40
2018-05-29T17:23:25.631Z,91.90
2018-05-29T17:25:58.198Z,91.90
2018-05-29T17:28:30.765Z,91.90
2018-05-29T17:31:03.315Z,91.90
2018-05-29T17:33:36.074Z,92.30
2018-05-29T17:36:08.577Z,92.30
2018-05-29T17:38:41.274Z,92.50
2018-05-29T17:41:14.412Z,92.50
2018-05-29T17:43:47.313Z,92.50
2018-05-29T17:46:19.971Z,92.30
2018-05-29T17:48:52.857Z,92.20
2018-05-29T17:51:25.805Z,92.10
2018-05-29T17:53:58.791Z,91.90
2018-05-29T17:56:32.488Z,91.70
2018-05-29T17:59:05.377Z,91.70
2018-05-29T18:01:37.855Z,91.90
2018-05-29T18:04:10.936Z,91.90
2018-05-29T18:06:43.696Z,92.40
2018-05-29T18:09:16.382Z,92.70
2018-05-29T18:11:49.285Z,92.70
2018-05-29T18:14:21.844Z,92.80
2018-05-29T18:16:54.504Z,92.70
2018-05-29T18:19:28.021Z,92.50
2018-05-29T18:22:01.950Z,92.80
2018-05-29T18:24:35.168Z,93.00
2018-05-29T18:27:08.765Z,92.90
2018-05-29T18:29:41.306Z,92.90
2018-05-29T18:32:16.148Z,92.90
2018-05-29T18:34:49.309Z,92.80
2018-05-29T18:37:22.633Z,92.80
2018-05-29T18:39:55.299Z,92.80
2018-05-29T18:42:27.926Z,92.70
2018-05-29T18:45:00.585Z,92.80
2018-05-29T18:47:33.136Z,92.80
2018-05-29T18:50:05.837Z,92.80
2018-05-29T18:52:39.927Z,93.00
2018-05-29T18:55:12.642Z,92.90
2018-05-29T18:57:45.370Z,93.00
2018-05-29T19:00:18.040Z,93.20
2018-05-29T19:02:50.464Z,93.10
2018-05-29T19:05:22.862Z,93.20
2018-05-29T19:07:55.315Z,93.30
2018-05-29T19:10:27.969Z,93.40
2018-05-29T19:13:00.672Z,93.50
2018-05-29T19:15:33.301Z,93.50
2018-05-29T19:18:06.047Z,93.40
2018-05-29T19:20:38.728Z,93.40
2018-05-29T19:23:11.327Z,93.50
2018-05-29T19:25:44.091Z,93.60
2018-05-29T19:28:17.366Z,93.90
2018-05-29T19:30:50.046Z,93.70
2018-05-29T19:33:23.230Z,93.60
2018-05-29T19:35:55.691Z,93.50
2018-05-29T19:38:29.123Z,93.60
2018-05-29T19:41:02.361Z,93.80
2018-05-29T19:43:34.942Z,93.70
2018-05-29T19:46:07.777Z,93.90
2018-05-29T19:48:40.369Z,93.90
2018-05-29T19:51:13.625Z,94.00
2018-05-29T19:53:46.207Z,94.10
2018-05-29T19:56:19.381Z,94.00
2018-05-29T19:58:52.102Z,93.90
2018-05-29T20:01:24.854Z,93.90
2018-05-29T20:03:57.569Z,93.80
2018-05-29T20:06:30.122Z,93.70
2018-05-29T20:09:04.363Z,93.80
2018-05-29T20:11:37.131Z,93.80
2018-05-29T20:14:09.584Z,93.90
2018-05-29T20:16:42.579Z,93.90
2018-05-29T20:19:15.091Z,94.00
2018-05-29T20:21:47.698Z,93.80
2018-05-29T20:24:20.320Z,94.00
2018-05-29T20:26:52.954Z,94.00
2018-05-29T20:29:25.479Z,94.10
2018-05-29T20:31:58.089Z,94.10
2018-05-29T20:34:31.198Z,94.10
2018-05-29T20:37:03.864Z,94.10
2018-05-29T20:39:36.623Z,94.10
2018-05-29T20:42:09.370Z,94.00
2018-05-29T20:44:42.160Z,94.00
2018-05-29T20:47:14.734Z,94.10
2018-05-29T20:49:48.394Z,94.40
2018-05-29T20:52:21.155Z,94.10
2018-05-29T20:54:53.788Z,94.10
2018-05-29T20:57:26.423Z,94.10
2018-05-29T20:59:58.979Z,94.10
2018-05-29T21:02:31.773Z,94.00
2018-05-29T21:05:04.340Z,94.00
2018-05-29T21:07:37.042Z,93.60
2018-05-29T21:10:09.593Z,93.10
2018-05-29T21:12:42.293Z,92.60
2018-05-29T21:15:14.927Z,92.10
2018-05-29T21:17:47.567Z,91.60
2018-05-29T21:20:20.223Z,91.40
2018-05-29T21:22:53.961Z,91.10
2018-05-29T21:25:27.284Z,91.20
2018-05-29T21:28:00.016Z,91.20
2018-05-29T21:30:32.632Z,91.20
2018-05-29T21:33:05.303Z,91.30
2018-05-29T21:35:38.409Z,91.00
2018-05-29T21:38:11.607Z,91.40
2018-05-29T21:40:44.816Z,91.40
2018-05-29T21:43:17.290Z,91.40
2018-05-29T21:45:50.784Z,91.90
2018-05-29T21:48:23.235Z,91.90
2018-05-29T21:50:56.110Z,92.20
2018-05-29T21:53:28.510Z,92.40
2018-05-29T21:56:00.956Z,92.50
2018-05-29T21:58:33.394Z,92.50
2018-05-29T22:01:06.129Z,92.80
2018-05-29T22:03:39.476Z,92.80
2018-05-29T22:06:12.051Z,92.80
2018-05-29T22:08:44.646Z,92.90
2018-05-29T22:11:17.335Z,93.10
2018-05-29T22:13:49.938Z,93.50
2018-05-29T22:16:23.151Z,93.40
2018-05-29T22:18:56.256Z,93.30
2018-05-29T22:21:29.155Z,93.30
2018-05-29T22:24:01.655Z,93.20
2018-05-29T22:26:34.195Z,93.40
2018-05-29T22:29:06.826Z,93.50
2018-05-29T22:31:39.340Z,93.70
2018-05-29T22:34:11.800Z,93.90
2018-05-29T22:36:51.095Z,94.00
2018-05-29T22:39:23.643Z,94.00
2018-05-29T22:41:56.271Z,94.00
2018-05-29T22:44:28.687Z,94.20
2018-05-29T22:47:01.426Z,94.30
2018-05-29T22:49:34.083Z,94.50
2018-05-29T22:52:06.811Z,94.70
2018-05-29T22:54:39.549Z,94.80
2018-05-29T22:57:12.518Z,95.00
2018-05-29T22:59:45.101Z,95.00
2018-05-29T23:02:18.050Z,95.20
2018-05-29T23:04:51.568Z,95.30
2018-05-29T23:07:24.274Z,95.30
2018-05-29T23:09:56.774Z,95.50
2018-05-29T23:12:29.470Z,95.50
2018-05-29T23:15:02.127Z,95.60
2018-05-29T23:17:42.071Z,95.80
2018-05-29T23:20:15.008Z,96.00
2018-05-29T23:22:47.828Z,95.90
2018-05-29T23:25:21.297Z,96.00
2018-05-29T23:30:33.361Z,96.00
2018-05-29T23:33:06.159Z,95.90
2018-05-29T23:35:39.379Z,95.80
2018-05-29T23:38:11.891Z,95.80
2018-05-29T23:40:45.199Z,95.80
2018-05-29T23:43:17.769Z,95.80
2018-05-29T23:45:50.569Z,95.80
2018-05-29T23:48:23.332Z,95.80
2018-05-29T23:50:56.660Z,95.80
2018-05-29T23:53:29.013Z,95.80
2018-05-29T23:56:02.332Z,95.70
2018-05-29T23:58:34.775Z,95.70
